sensor_id;sensor_type;location;lat;lon;timestamp;P1;durP1;ratioP1;P2;durP2;ratioP2
25948;SDS011;13961;51.178;4.448;2023-05-31T00:00:46;6.68;;;4.55;;
25948;SDS011;13961;51.178;4.448;2023-05-31T00:03:12;6.43;;;5.03;;
25948;SDS011;13961;51.178;4.448;2023-05-31T00:05:38;6.45;;;4.20;;
25948;SDS011;13961;51.178;4.448;2023-05-31T00:08:04;6.72;;;4.90;;
25948;SDS011;13961;51.178;4.448;2023-05-31T00:10:30;6.30;;;4.47;;
25948;SDS011;13961;51.178;4.448;2023-05-31T00:12:55;5.75;;;4.57;;
25948;SDS011;13961;51.178;4.448;2023-05-31T00:15:21;8.02;;;4.95;;
25948;SDS011;13961;51.178;4.448;2023-05-31T00:17:46;7.00;;;4.82;;
25948;SDS011;13961;51.178;4.448;2023-05-31T00:20:12;7.85;;;4.68;;
25948;SDS011;13961;51.178;4.448;2023-05-31T00:22:38;6.57;;;4.50;;
25948;SDS011;13961;51.178;4.448;2023-05-31T00:25:03;6.75;;;4.78;;
25948;SDS011;13961;51.178;4.448;2023-05-31T00:27:30;6.80;;;4.35;;
25948;SDS011;13961;51.178;4.448;2023-05-31T00:29:55;8.43;;;5.28;;
25948;SDS011;13961;51.178;4.448;2023-05-31T00:32:22;7.88;;;4.80;;
25948;SDS011;13961;51.178;4.448;2023-05-31T00:34:49;7.38;;;5.22;;
25948;SDS011;13961;51.178;4.448;2023-05-31T00:37:15;7.07;;;4.90;;
25948;SDS011;13961;51.178;4.448;2023-05-31T00:39:41;6.97;;;5.00;;
25948;SDS011;13961;51.178;4.448;2023-05-31T00:42:08;6.93;;;5.45;;
25948;SDS011;13961;51.178;4.448;2023-05-31T00:44:35;10.18;;;5.57;;
25948;SDS011;13961;51.178;4.448;2023-05-31T00:47:01;6.95;;;5.22;;
25948;SDS011;13961;51.178;4.448;2023-05-31T00:49:27;5.95;;;5.03;;
25948;SDS011;13961;51.178;4.448;2023-05-31T00:51:53;7.72;;;5.57;;
25948;SDS011;13961;51.178;4.448;2023-05-31T00:54:20;7.25;;;5.65;;
25948;SDS011;13961;51.178;4.448;2023-05-31T00:56:47;8.90;;;5.60;;
25948;SDS011;13961;51.178;4.448;2023-05-31T00:59:13;8.95;;;5.53;;
25948;SDS011;13961;51.178;4.448;2023-05-31T01:01:40;7.75;;;5.32;;
25948;SDS011;13961;51.178;4.448;2023-05-31T01:04:08;9.95;;;5.60;;
25948;SDS011;13961;51.178;4.448;2023-05-31T01:06:34;6.78;;;5.22;;
25948;SDS011;13961;51.178;4.448;2023-05-31T01:09:02;7.97;;;5.68;;
25948;SDS011;13961;51.178;4.448;2023-05-31T01:17:17;8.82;;;5.78;;
25948;SDS011;13961;51.178;4.448;2023-05-31T01:20:01;8.55;;;5.28;;
25948;SDS011;13961;51.178;4.448;2023-05-31T01:25:35;7.85;;;5.00;;
25948;SDS011;13961;51.178;4.448;2023-05-31T01:28:06;8.82;;;5.32;;
25948;SDS011;13961;51.178;4.448;2023-05-31T01:30:35;11.85;;;5.85;;
25948;SDS011;13961;51.178;4.448;2023-05-31T01:33:02;9.50;;;6.28;;
25948;SDS011;13961;51.178;4.448;2023-05-31T01:35:34;10.45;;;5.88;;
25948;SDS011;13961;51.178;4.448;2023-05-31T01:38:00;8.30;;;5.78;;
25948;SDS011;13961;51.178;4.448;2023-05-31T01:40:26;11.30;;;5.90;;
25948;SDS011;13961;51.178;4.448;2023-05-31T01:42:58;8.43;;;6.05;;
25948;SDS011;13961;51.178;4.448;2023-05-31T01:45:24;9.20;;;6.00;;
25948;SDS011;13961;51.178;4.448;2023-05-31T01:47:53;8.95;;;5.53;;
25948;SDS011;13961;51.178;4.448;2023-05-31T01:50:25;9.25;;;6.07;;
25948;SDS011;13961;51.178;4.448;2023-05-31T01:52:53;7.78;;;5.95;;
25948;SDS011;13961;51.178;4.448;2023-05-31T01:55:19;8.25;;;5.80;;
25948;SDS011;13961;51.178;4.448;2023-05-31T01:57:45;8.32;;;6.10;;
25948;SDS011;13961;51.178;4.448;2023-05-31T02:00:13;11.68;;;6.55;;
25948;SDS011;13961;51.178;4.448;2023-05-31T02:02:43;8.45;;;5.57;;
25948;SDS011;13961;51.178;4.448;2023-05-31T02:05:10;7.00;;;5.97;;
25948;SDS011;13961;51.178;4.448;2023-05-31T02:07:40;10.10;;;6.40;;
25948;SDS011;13961;51.178;4.448;2023-05-31T02:10:07;8.55;;;5.47;;
25948;SDS011;13961;51.178;4.448;2023-05-31T02:12:34;9.77;;;6.05;;
25948;SDS011;13961;51.178;4.448;2023-05-31T02:15:01;8.55;;;6.22;;
25948;SDS011;13961;51.178;4.448;2023-05-31T02:17:28;9.48;;;6.05;;
25948;SDS011;13961;51.178;4.448;2023-05-31T02:20:00;9.23;;;6.50;;
25948;SDS011;13961;51.178;4.448;2023-05-31T02:22:28;9.68;;;6.63;;
25948;SDS011;13961;51.178;4.448;2023-05-31T02:24:54;8.77;;;6.35;;
25948;SDS011;13961;51.178;4.448;2023-05-31T02:27:22;8.80;;;6.30;;
25948;SDS011;13961;51.178;4.448;2023-05-31T02:29:49;9.48;;;6.53;;
25948;SDS011;13961;51.178;4.448;2023-05-31T02:32:15;8.30;;;6.30;;
25948;SDS011;13961;51.178;4.448;2023-05-31T02:34:40;8.95;;;6.30;;
25948;SDS011;13961;51.178;4.448;2023-05-31T02:37:07;7.82;;;6.18;;
25948;SDS011;13961;51.178;4.448;2023-05-31T02:39:33;8.70;;;6.63;;
25948;SDS011;13961;51.178;4.448;2023-05-31T02:42:00;8.52;;;6.45;;
25948;SDS011;13961;51.178;4.448;2023-05-31T02:44:25;8.15;;;6.40;;
25948;SDS011;13961;51.178;4.448;2023-05-31T02:46:52;8.40;;;5.97;;
25948;SDS011;13961;51.178;4.448;2023-05-31T02:49:18;8.77;;;6.03;;
25948;SDS011;13961;51.178;4.448;2023-05-31T02:51:44;9.60;;;6.72;;
25948;SDS011;13961;51.178;4.448;2023-05-31T02:54:09;7.82;;;6.05;;
25948;SDS011;13961;51.178;4.448;2023-05-31T02:56:35;9.70;;;6.90;;
25948;SDS011;13961;51.178;4.448;2023-05-31T02:59:01;10.05;;;6.25;;
25948;SDS011;13961;51.178;4.448;2023-05-31T03:01:26;12.07;;;6.75;;
25948;SDS011;13961;51.178;4.448;2023-05-31T03:03:52;9.88;;;6.60;;
25948;SDS011;13961;51.178;4.448;2023-05-31T03:06:19;10.85;;;6.82;;
25948;SDS011;13961;51.178;4.448;2023-05-31T03:08:44;10.50;;;6.75;;
25948;SDS011;13961;51.178;4.448;2023-05-31T03:11:10;9.68;;;6.82;;
25948;SDS011;13961;51.178;4.448;2023-05-31T03:13:36;11.70;;;7.03;;
25948;SDS011;13961;51.178;4.448;2023-05-31T03:16:02;11.10;;;7.22;;
25948;SDS011;13961;51.178;4.448;2023-05-31T03:18:28;10.30;;;7.43;;
25948;SDS011;13961;51.178;4.448;2023-05-31T03:20:53;11.43;;;6.88;;
25948;SDS011;13961;51.178;4.448;2023-05-31T03:23:20;10.23;;;7.70;;
25948;SDS011;13961;51.178;4.448;2023-05-31T03:25:46;11.05;;;7.22;;
25948;SDS011;13961;51.178;4.448;2023-05-31T03:28:12;9.50;;;6.43;;
25948;SDS011;13961;51.178;4.448;2023-05-31T03:30:40;11.27;;;7.50;;
25948;SDS011;13961;51.178;4.448;2023-05-31T03:33:06;10.02;;;6.88;;
25948;SDS011;13961;51.178;4.448;2023-05-31T03:35:34;10.50;;;7.22;;
25948;SDS011;13961;51.178;4.448;2023-05-31T03:38:01;11.68;;;7.68;;
25948;SDS011;13961;51.178;4.448;2023-05-31T03:40:29;10.48;;;7.00;;
25948;SDS011;13961;51.178;4.448;2023-05-31T03:42:57;10.18;;;7.38;;
25948;SDS011;13961;51.178;4.448;2023-05-31T03:45:23;12.68;;;7.55;;
25948;SDS011;13961;51.178;4.448;2023-05-31T03:47:49;10.75;;;6.88;;
25948;SDS011;13961;51.178;4.448;2023-05-31T03:50:16;12.15;;;7.25;;
25948;SDS011;13961;51.178;4.448;2023-05-31T03:55:10;10.68;;;7.70;;
25948;SDS011;13961;51.178;4.448;2023-05-31T04:00:05;11.20;;;7.90;;
25948;SDS011;13961;51.178;4.448;2023-05-31T04:02:31;11.02;;;7.50;;
25948;SDS011;13961;51.178;4.448;2023-05-31T04:04:57;13.85;;;7.90;;
25948;SDS011;13961;51.178;4.448;2023-05-31T04:07:23;12.65;;;8.40;;
25948;SDS011;13961;51.178;4.448;2023-05-31T04:09:48;13.32;;;8.02;;
25948;SDS011;13961;51.178;4.448;2023-05-31T04:14:46;11.48;;;8.18;;
25948;SDS011;13961;51.178;4.448;2023-05-31T04:17:13;11.45;;;7.50;;
25948;SDS011;13961;51.178;4.448;2023-05-31T04:19:39;12.32;;;8.43;;
25948;SDS011;13961;51.178;4.448;2023-05-31T04:22:05;11.43;;;7.93;;
25948;SDS011;13961;51.178;4.448;2023-05-31T04:24:32;14.52;;;8.80;;
25948;SDS011;13961;51.178;4.448;2023-05-31T04:26:58;12.82;;;8.32;;
25948;SDS011;13961;51.178;4.448;2023-05-31T04:29:25;12.77;;;8.93;;
25948;SDS011;13961;51.178;4.448;2023-05-31T04:31:53;14.20;;;8.68;;
25948;SDS011;13961;51.178;4.448;2023-05-31T04:34:19;11.75;;;8.35;;
25948;SDS011;13961;51.178;4.448;2023-05-31T04:36:46;12.93;;;7.47;;
25948;SDS011;13961;51.178;4.448;2023-05-31T04:39:15;14.32;;;8.65;;
25948;SDS011;13961;51.178;4.448;2023-05-31T04:41:42;16.70;;;9.02;;
25948;SDS011;13961;51.178;4.448;2023-05-31T04:44:09;16.42;;;9.23;;
25948;SDS011;13961;51.178;4.448;2023-05-31T04:46:37;11.38;;;7.85;;
25948;SDS011;13961;51.178;4.448;2023-05-31T04:49:06;15.20;;;7.97;;
25948;SDS011;13961;51.178;4.448;2023-05-31T04:51:33;14.23;;;8.57;;
25948;SDS011;13961;51.178;4.448;2023-05-31T04:53:59;12.25;;;8.05;;
25948;SDS011;13961;51.178;4.448;2023-05-31T04:56:25;13.20;;;8.77;;
25948;SDS011;13961;51.178;4.448;2023-05-31T04:58:50;16.60;;;9.50;;
25948;SDS011;13961;51.178;4.448;2023-05-31T05:01:17;15.80;;;8.68;;
25948;SDS011;13961;51.178;4.448;2023-05-31T05:03:42;15.68;;;9.15;;
25948;SDS011;13961;51.178;4.448;2023-05-31T05:06:15;14.25;;;8.20;;
25948;SDS011;13961;51.178;4.448;2023-05-31T05:08:47;14.15;;;8.18;;
25948;SDS011;13961;51.178;4.448;2023-05-31T05:11:13;11.85;;;7.80;;
25948;SDS011;13961;51.178;4.448;2023-05-31T05:13:39;12.57;;;8.05;;
25948;SDS011;13961;51.178;4.448;2023-05-31T05:16:05;16.40;;;8.80;;
25948;SDS011;13961;51.178;4.448;2023-05-31T05:18:31;13.82;;;8.73;;
25948;SDS011;13961;51.178;4.448;2023-05-31T05:20:58;13.38;;;8.93;;
25948;SDS011;13961;51.178;4.448;2023-05-31T05:23:23;14.13;;;8.63;;
25948;SDS011;13961;51.178;4.448;2023-05-31T05:25:49;15.02;;;9.48;;
25948;SDS011;13961;51.178;4.448;2023-05-31T05:28:15;14.93;;;9.13;;
25948;SDS011;13961;51.178;4.448;2023-05-31T05:30:41;15.40;;;9.25;;
25948;SDS011;13961;51.178;4.448;2023-05-31T05:33:09;15.60;;;8.38;;
25948;SDS011;13961;51.178;4.448;2023-05-31T05:35:35;15.40;;;9.23;;
25948;SDS011;13961;51.178;4.448;2023-05-31T05:38:01;14.00;;;8.82;;
25948;SDS011;13961;51.178;4.448;2023-05-31T05:40:26;17.70;;;9.82;;
25948;SDS011;13961;51.178;4.448;2023-05-31T05:42:53;15.18;;;9.05;;
25948;SDS011;13961;51.178;4.448;2023-05-31T05:45:19;14.13;;;9.00;;
25948;SDS011;13961;51.178;4.448;2023-05-31T05:47:45;16.63;;;9.07;;
25948;SDS011;13961;51.178;4.448;2023-05-31T05:50:13;13.88;;;8.63;;
25948;SDS011;13961;51.178;4.448;2023-05-31T05:52:39;14.35;;;9.13;;
25948;SDS011;13961;51.178;4.448;2023-05-31T05:55:05;13.48;;;9.00;;
25948;SDS011;13961;51.178;4.448;2023-05-31T05:57:32;16.10;;;9.70;;
25948;SDS011;13961;51.178;4.448;2023-05-31T05:59:58;17.00;;;9.43;;
25948;SDS011;13961;51.178;4.448;2023-05-31T06:02:24;19.08;;;9.77;;
25948;SDS011;13961;51.178;4.448;2023-05-31T06:04:49;15.35;;;9.13;;
25948;SDS011;13961;51.178;4.448;2023-05-31T06:07:16;14.77;;;8.90;;
25948;SDS011;13961;51.178;4.448;2023-05-31T06:09:43;16.15;;;9.18;;
25948;SDS011;13961;51.178;4.448;2023-05-31T06:12:11;13.23;;;9.38;;
25948;SDS011;13961;51.178;4.448;2023-05-31T06:14:39;12.10;;;8.88;;
25948;SDS011;13961;51.178;4.448;2023-05-31T06:17:05;13.85;;;9.10;;
25948;SDS011;13961;51.178;4.448;2023-05-31T06:19:31;15.23;;;9.23;;
25948;SDS011;13961;51.178;4.448;2023-05-31T06:21:57;14.43;;;9.02;;
25948;SDS011;13961;51.178;4.448;2023-05-31T06:24:23;15.20;;;9.20;;
25948;SDS011;13961;51.178;4.448;2023-05-31T06:26:48;13.93;;;9.25;;
25948;SDS011;13961;51.178;4.448;2023-05-31T06:29:14;13.98;;;8.95;;
25948;SDS011;13961;51.178;4.448;2023-05-31T06:31:40;14.52;;;8.85;;
25948;SDS011;13961;51.178;4.448;2023-05-31T06:34:07;14.02;;;8.82;;
25948;SDS011;13961;51.178;4.448;2023-05-31T06:36:34;15.35;;;8.50;;
25948;SDS011;13961;51.178;4.448;2023-05-31T06:39:00;11.43;;;8.35;;
25948;SDS011;13961;51.178;4.448;2023-05-31T06:41:26;12.45;;;7.90;;
25948;SDS011;13961;51.178;4.448;2023-05-31T06:43:52;11.82;;;8.00;;
25948;SDS011;13961;51.178;4.448;2023-05-31T06:46:18;15.48;;;9.27;;
25948;SDS011;13961;51.178;4.448;2023-05-31T06:48:44;13.32;;;9.02;;
25948;SDS011;13961;51.178;4.448;2023-05-31T06:51:09;12.35;;;7.65;;
25948;SDS011;13961;51.178;4.448;2023-05-31T06:53:36;12.27;;;8.63;;
25948;SDS011;13961;51.178;4.448;2023-05-31T06:56:02;14.63;;;8.57;;
25948;SDS011;13961;51.178;4.448;2023-05-31T06:58:34;11.38;;;8.23;;
25948;SDS011;13961;51.178;4.448;2023-05-31T07:00:59;14.90;;;9.20;;
25948;SDS011;13961;51.178;4.448;2023-05-31T07:03:26;10.55;;;8.45;;
25948;SDS011;13961;51.178;4.448;2023-05-31T07:05:52;11.52;;;9.02;;
25948;SDS011;13961;51.178;4.448;2023-05-31T07:08:17;12.88;;;9.10;;
25948;SDS011;13961;51.178;4.448;2023-05-31T07:10:43;15.25;;;8.63;;
25948;SDS011;13961;51.178;4.448;2023-05-31T07:13:10;11.60;;;8.60;;
25948;SDS011;13961;51.178;4.448;2023-05-31T07:15:36;11.93;;;8.70;;
25948;SDS011;13961;51.178;4.448;2023-05-31T07:18:02;14.05;;;9.07;;
25948;SDS011;13961;51.178;4.448;2023-05-31T07:20:28;14.48;;;8.88;;
25948;SDS011;13961;51.178;4.448;2023-05-31T07:22:54;12.02;;;8.68;;
25948;SDS011;13961;51.178;4.448;2023-05-31T07:25:19;13.27;;;8.75;;
25948;SDS011;13961;51.178;4.448;2023-05-31T07:27:45;17.27;;;8.77;;
25948;SDS011;13961;51.178;4.448;2023-05-31T07:30:11;14.05;;;8.73;;
25948;SDS011;13961;51.178;4.448;2023-05-31T07:32:36;17.27;;;9.05;;
25948;SDS011;13961;51.178;4.448;2023-05-31T07:35:02;15.57;;;9.02;;
25948;SDS011;13961;51.178;4.448;2023-05-31T07:37:28;12.57;;;9.45;;
25948;SDS011;13961;51.178;4.448;2023-05-31T07:39:54;13.10;;;8.88;;
25948;SDS011;13961;51.178;4.448;2023-05-31T07:42:19;11.65;;;9.05;;
25948;SDS011;13961;51.178;4.448;2023-05-31T07:44:45;16.60;;;8.80;;
25948;SDS011;13961;51.178;4.448;2023-05-31T07:47:14;12.63;;;8.80;;
25948;SDS011;13961;51.178;4.448;2023-05-31T07:49:44;14.82;;;9.50;;
25948;SDS011;13961;51.178;4.448;2023-05-31T07:52:10;12.85;;;9.48;;
25948;SDS011;13961;51.178;4.448;2023-05-31T07:54:35;15.20;;;9.55;;
25948;SDS011;13961;51.178;4.448;2023-05-31T07:57:01;12.45;;;9.60;;
25948;SDS011;13961;51.178;4.448;2023-05-31T07:59:27;14.00;;;9.85;;
25948;SDS011;13961;51.178;4.448;2023-05-31T08:01:52;12.85;;;9.23;;
25948;SDS011;13961;51.178;4.448;2023-05-31T08:04:18;11.57;;;8.93;;
25948;SDS011;13961;51.178;4.448;2023-05-31T08:06:45;13.82;;;9.60;;
25948;SDS011;13961;51.178;4.448;2023-05-31T08:09:11;12.07;;;8.48;;
25948;SDS011;13961;51.178;4.448;2023-05-31T08:11:36;11.45;;;8.40;;
25948;SDS011;13961;51.178;4.448;2023-05-31T08:14:03;10.65;;;8.82;;
25948;SDS011;13961;51.178;4.448;2023-05-31T08:16:29;13.45;;;9.02;;
25948;SDS011;13961;51.178;4.448;2023-05-31T08:18:56;11.95;;;9.00;;
25948;SDS011;13961;51.178;4.448;2023-05-31T08:21:22;15.25;;;8.98;;
25948;SDS011;13961;51.178;4.448;2023-05-31T08:23:47;21.17;;;9.88;;
25948;SDS011;13961;51.178;4.448;2023-05-31T08:26:13;14.10;;;8.95;;
25948;SDS011;13961;51.178;4.448;2023-05-31T08:28:39;12.25;;;8.93;;
25948;SDS011;13961;51.178;4.448;2023-05-31T08:31:06;12.45;;;8.70;;
25948;SDS011;13961;51.178;4.448;2023-05-31T08:33:32;15.20;;;9.32;;
25948;SDS011;13961;51.178;4.448;2023-05-31T08:35:58;14.82;;;8.68;;
25948;SDS011;13961;51.178;4.448;2023-05-31T08:38:24;12.43;;;8.45;;
25948;SDS011;13961;51.178;4.448;2023-05-31T08:40:52;15.07;;;9.30;;
25948;SDS011;13961;51.178;4.448;2023-05-31T08:43:19;15.75;;;8.95;;
25948;SDS011;13961;51.178;4.448;2023-05-31T08:45:50;13.38;;;8.57;;
25948;SDS011;13961;51.178;4.448;2023-05-31T08:48:30;11.23;;;7.75;;
25948;SDS011;13961;51.178;4.448;2023-05-31T08:51:03;15.85;;;8.95;;
25948;SDS011;13961;51.178;4.448;2023-05-31T08:53:30;12.73;;;8.63;;
25948;SDS011;13961;51.178;4.448;2023-05-31T08:55:59;11.70;;;8.60;;
25948;SDS011;13961;51.178;4.448;2023-05-31T08:58:32;11.30;;;8.77;;
25948;SDS011;13961;51.178;4.448;2023-05-31T09:01:01;16.27;;;8.75;;
25948;SDS011;13961;51.178;4.448;2023-05-31T09:03:27;13.90;;;9.10;;
25948;SDS011;13961;51.178;4.448;2023-05-31T09:05:56;13.80;;;9.02;;
25948;SDS011;13961;51.178;4.448;2023-05-31T09:08:22;15.13;;;8.73;;
25948;SDS011;13961;51.178;4.448;2023-05-31T09:10:48;12.10;;;8.32;;
25948;SDS011;13961;51.178;4.448;2023-05-31T09:13:14;12.52;;;8.32;;
25948;SDS011;13961;51.178;4.448;2023-05-31T09:15:40;11.75;;;7.72;;
25948;SDS011;13961;51.178;4.448;2023-05-31T09:18:15;14.90;;;8.27;;
25948;SDS011;13961;51.178;4.448;2023-05-31T09:20:46;12.15;;;7.70;;
25948;SDS011;13961;51.178;4.448;2023-05-31T09:23:17;14.30;;;9.18;;
25948;SDS011;13961;51.178;4.448;2023-05-31T09:25:47;14.13;;;8.93;;
25948;SDS011;13961;51.178;4.448;2023-05-31T09:28:20;12.68;;;8.27;;
25948;SDS011;13961;51.178;4.448;2023-05-31T09:33:38;14.43;;;8.40;;
25948;SDS011;13961;51.178;4.448;2023-05-31T09:36:08;15.85;;;7.78;;
25948;SDS011;13961;51.178;4.448;2023-05-31T09:38:35;17.95;;;8.27;;
25948;SDS011;13961;51.178;4.448;2023-05-31T09:41:20;14.90;;;8.10;;
25948;SDS011;13961;51.178;4.448;2023-05-31T09:43:47;12.73;;;7.95;;
25948;SDS011;13961;51.178;4.448;2023-05-31T09:46:14;14.25;;;8.35;;
25948;SDS011;13961;51.178;4.448;2023-05-31T09:48:44;14.30;;;8.07;;
25948;SDS011;13961;51.178;4.448;2023-05-31T09:51:11;13.23;;;7.05;;
25948;SDS011;13961;51.178;4.448;2023-05-31T09:53:43;15.77;;;8.13;;
25948;SDS011;13961;51.178;4.448;2023-05-31T09:56:11;16.17;;;9.18;;
25948;SDS011;13961;51.178;4.448;2023-05-31T09:58:43;15.18;;;8.32;;
25948;SDS011;13961;51.178;4.448;2023-05-31T10:01:09;16.25;;;7.80;;
25948;SDS011;13961;51.178;4.448;2023-05-31T10:03:35;15.57;;;7.85;;
25948;SDS011;13961;51.178;4.448;2023-05-31T10:06:02;12.00;;;7.30;;
25948;SDS011;13961;51.178;4.448;2023-05-31T10:08:28;12.63;;;7.25;;
25948;SDS011;13961;51.178;4.448;2023-05-31T10:10:56;13.30;;;6.82;;
25948;SDS011;13961;51.178;4.448;2023-05-31T10:13:23;17.88;;;6.97;;
25948;SDS011;13961;51.178;4.448;2023-05-31T10:15:51;11.15;;;5.82;;
25948;SDS011;13961;51.178;4.448;2023-05-31T10:18:28;13.68;;;6.93;;
25948;SDS011;13961;51.178;4.448;2023-05-31T10:20:58;12.10;;;7.25;;
25948;SDS011;13961;51.178;4.448;2023-05-31T10:23:34;12.25;;;7.53;;
25948;SDS011;13961;51.178;4.448;2023-05-31T10:28:40;11.35;;;7.07;;
25948;SDS011;13961;51.178;4.448;2023-05-31T10:31:20;12.18;;;7.53;;
25948;SDS011;13961;51.178;4.448;2023-05-31T10:33:48;11.18;;;6.25;;
25948;SDS011;13961;51.178;4.448;2023-05-31T10:36:19;14.15;;;6.93;;
25948;SDS011;13961;51.178;4.448;2023-05-31T10:38:50;14.60;;;6.63;;
25948;SDS011;13961;51.178;4.448;2023-05-31T10:41:21;13.25;;;7.18;;
25948;SDS011;13961;51.178;4.448;2023-05-31T10:43:58;11.25;;;6.25;;
25948;SDS011;13961;51.178;4.448;2023-05-31T10:46:27;12.63;;;6.65;;
25948;SDS011;13961;51.178;4.448;2023-05-31T10:48:56;10.63;;;6.03;;
25948;SDS011;13961;51.178;4.448;2023-05-31T10:51:43;10.60;;;5.35;;
25948;SDS011;13961;51.178;4.448;2023-05-31T10:54:25;11.07;;;5.68;;
25948;SDS011;13961;51.178;4.448;2023-05-31T10:56:55;9.88;;;5.30;;
25948;SDS011;13961;51.178;4.448;2023-05-31T10:59:22;11.02;;;5.00;;
25948;SDS011;13961;51.178;4.448;2023-05-31T11:01:51;16.10;;;6.07;;
25948;SDS011;13961;51.178;4.448;2023-05-31T11:04:21;8.57;;;5.72;;
25948;SDS011;13961;51.178;4.448;2023-05-31T11:06:55;16.88;;;5.50;;
25948;SDS011;13961;51.178;4.448;2023-05-31T11:09:59;9.10;;;4.75;;
25948;SDS011;13961;51.178;4.448;2023-05-31T11:12:35;10.90;;;5.07;;
25948;SDS011;13961;51.178;4.448;2023-05-31T11:15:04;9.95;;;4.30;;
25948;SDS011;13961;51.178;4.448;2023-05-31T11:17:40;8.82;;;4.55;;
25948;SDS011;13961;51.178;4.448;2023-05-31T11:20:16;12.57;;;4.32;;
25948;SDS011;13961;51.178;4.448;2023-05-31T11:22:42;10.57;;;3.90;;
25948;SDS011;13961;51.178;4.448;2023-05-31T11:25:07;7.57;;;4.30;;
25948;SDS011;13961;51.178;4.448;2023-05-31T11:27:36;7.95;;;3.75;;
25948;SDS011;13961;51.178;4.448;2023-05-31T11:30:36;8.93;;;3.70;;
25948;SDS011;13961;51.178;4.448;2023-05-31T11:33:00;11.65;;;3.90;;
25948;SDS011;13961;51.178;4.448;2023-05-31T11:35:26;14.93;;;3.88;;
25948;SDS011;13961;51.178;4.448;2023-05-31T11:37:59;13.07;;;3.40;;
25948;SDS011;13961;51.178;4.448;2023-05-31T11:40:26;6.57;;;2.92;;
25948;SDS011;13961;51.178;4.448;2023-05-31T11:42:53;6.47;;;3.10;;
25948;SDS011;13961;51.178;4.448;2023-05-31T11:45:27;7.50;;;3.33;;
25948;SDS011;13961;51.178;4.448;2023-05-31T11:50:42;9.95;;;4.00;;
25948;SDS011;13961;51.178;4.448;2023-05-31T11:53:09;11.63;;;4.38;;
25948;SDS011;13961;51.178;4.448;2023-05-31T11:55:36;7.60;;;3.78;;
25948;SDS011;13961;51.178;4.448;2023-05-31T11:58:04;8.25;;;3.97;;
25948;SDS011;13961;51.178;4.448;2023-05-31T12:00:31;6.97;;;3.17;;
25948;SDS011;13961;51.178;4.448;2023-05-31T12:02:58;9.32;;;3.80;;
25948;SDS011;13961;51.178;4.448;2023-05-31T12:05:29;10.95;;;3.78;;
25948;SDS011;13961;51.178;4.448;2023-05-31T12:07:56;10.18;;;3.80;;
25948;SDS011;13961;51.178;4.448;2023-05-31T12:10:25;6.40;;;3.58;;
25948;SDS011;13961;51.178;4.448;2023-05-31T12:12:57;7.47;;;3.50;;
25948;SDS011;13961;51.178;4.448;2023-05-31T12:15:23;11.63;;;3.03;;
25948;SDS011;13961;51.178;4.448;2023-05-31T12:17:51;9.35;;;3.70;;
25948;SDS011;13961;51.178;4.448;2023-05-31T12:20:16;10.02;;;3.40;;
25948;SDS011;13961;51.178;4.448;2023-05-31T12:22:42;9.25;;;2.85;;
25948;SDS011;13961;51.178;4.448;2023-05-31T12:25:08;7.15;;;3.13;;
25948;SDS011;13961;51.178;4.448;2023-05-31T12:27:34;12.88;;;3.50;;
25948;SDS011;13961;51.178;4.448;2023-05-31T12:30:00;8.52;;;3.30;;
25948;SDS011;13961;51.178;4.448;2023-05-31T12:32:27;8.90;;;3.97;;
25948;SDS011;13961;51.178;4.448;2023-05-31T12:35:07;7.20;;;3.70;;
25948;SDS011;13961;51.178;4.448;2023-05-31T12:37:37;13.70;;;3.70;;
25948;SDS011;13961;51.178;4.448;2023-05-31T12:40:17;10.20;;;3.22;;
25948;SDS011;13961;51.178;4.448;2023-05-31T12:42:47;7.82;;;3.67;;
25948;SDS011;13961;51.178;4.448;2023-05-31T12:45:16;8.43;;;3.10;;
25948;SDS011;13961;51.178;4.448;2023-05-31T12:47:43;9.10;;;3.55;;
25948;SDS011;13961;51.178;4.448;2023-05-31T12:50:12;8.82;;;3.55;;
25948;SDS011;13961;51.178;4.448;2023-05-31T12:52:38;7.35;;;3.60;;
25948;SDS011;13961;51.178;4.448;2023-05-31T12:55:04;7.72;;;3.45;;
25948;SDS011;13961;51.178;4.448;2023-05-31T12:57:31;10.85;;;3.78;;
25948;SDS011;13961;51.178;4.448;2023-05-31T13:00:06;7.38;;;3.40;;
25948;SDS011;13961;51.178;4.448;2023-05-31T13:02:35;9.48;;;3.60;;
25948;SDS011;13961;51.178;4.448;2023-05-31T13:05:03;10.93;;;3.70;;
25948;SDS011;13961;51.178;4.448;2023-05-31T13:07:29;7.50;;;3.20;;
25948;SDS011;13961;51.178;4.448;2023-05-31T13:09:55;7.82;;;3.28;;
25948;SDS011;13961;51.178;4.448;2023-05-31T13:12:20;9.43;;;3.72;;
25948;SDS011;13961;51.178;4.448;2023-05-31T13:14:46;9.65;;;3.63;;
25948;SDS011;13961;51.178;4.448;2023-05-31T13:17:13;10.40;;;3.17;;
25948;SDS011;13961;51.178;4.448;2023-05-31T13:19:40;10.98;;;3.83;;
25948;SDS011;13961;51.178;4.448;2023-05-31T13:22:06;9.43;;;2.95;;
25948;SDS011;13961;51.178;4.448;2023-05-31T13:24:31;10.68;;;3.70;;
25948;SDS011;13961;51.178;4.448;2023-05-31T13:26:57;9.75;;;3.20;;
25948;SDS011;13961;51.178;4.448;2023-05-31T13:29:23;12.65;;;3.97;;
25948;SDS011;13961;51.178;4.448;2023-05-31T13:31:49;7.93;;;3.58;;
25948;SDS011;13961;51.178;4.448;2023-05-31T13:34:15;7.18;;;3.35;;
25948;SDS011;13961;51.178;4.448;2023-05-31T13:36:41;7.55;;;3.45;;
25948;SDS011;13961;51.178;4.448;2023-05-31T13:39:06;7.32;;;4.00;;
25948;SDS011;13961;51.178;4.448;2023-05-31T13:41:32;7.28;;;3.33;;
25948;SDS011;13961;51.178;4.448;2023-05-31T13:43:58;10.75;;;3.20;;
25948;SDS011;13961;51.178;4.448;2023-05-31T13:46:24;8.57;;;3.35;;
25948;SDS011;13961;51.178;4.448;2023-05-31T13:48:51;6.13;;;3.05;;
25948;SDS011;13961;51.178;4.448;2023-05-31T13:51:17;6.97;;;3.00;;
25948;SDS011;13961;51.178;4.448;2023-05-31T13:53:43;4.95;;;2.78;;
25948;SDS011;13961;51.178;4.448;2023-05-31T13:56:10;5.82;;;3.30;;
25948;SDS011;13961;51.178;4.448;2023-05-31T13:58:36;3.92;;;2.55;;
25948;SDS011;13961;51.178;4.448;2023-05-31T14:01:05;8.52;;;3.47;;
25948;SDS011;13961;51.178;4.448;2023-05-31T14:03:35;11.20;;;3.10;;
25948;SDS011;13961;51.178;4.448;2023-05-31T14:06:01;6.72;;;2.65;;
25948;SDS011;13961;51.178;4.448;2023-05-31T14:08:27;5.25;;;3.05;;
25948;SDS011;13961;51.178;4.448;2023-05-31T14:10:53;8.65;;;3.05;;
25948;SDS011;13961;51.178;4.448;2023-05-31T14:13:20;7.90;;;3.28;;
25948;SDS011;13961;51.178;4.448;2023-05-31T14:15:46;9.02;;;2.75;;
25948;SDS011;13961;51.178;4.448;2023-05-31T14:18:12;8.90;;;2.88;;
25948;SDS011;13961;51.178;4.448;2023-05-31T14:20:38;6.80;;;2.85;;
25948;SDS011;13961;51.178;4.448;2023-05-31T14:23:04;5.90;;;2.70;;
25948;SDS011;13961;51.178;4.448;2023-05-31T14:25:30;5.18;;;2.80;;
25948;SDS011;13961;51.178;4.448;2023-05-31T14:27:56;9.13;;;2.70;;
25948;SDS011;13961;51.178;4.448;2023-05-31T14:30:22;5.82;;;2.78;;
25948;SDS011;13961;51.178;4.448;2023-05-31T14:32:48;7.43;;;3.08;;
25948;SDS011;13961;51.178;4.448;2023-05-31T14:35:20;8.93;;;2.75;;
25948;SDS011;13961;51.178;4.448;2023-05-31T14:37:46;5.78;;;2.70;;
25948;SDS011;13961;51.178;4.448;2023-05-31T14:40:12;7.28;;;2.80;;
25948;SDS011;13961;51.178;4.448;2023-05-31T14:42:39;5.20;;;2.40;;
25948;SDS011;13961;51.178;4.448;2023-05-31T14:45:05;5.35;;;2.55;;
25948;SDS011;13961;51.178;4.448;2023-05-31T14:47:31;6.43;;;2.90;;
25948;SDS011;13961;51.178;4.448;2023-05-31T14:49:58;5.80;;;2.85;;
25948;SDS011;13961;51.178;4.448;2023-05-31T14:52:23;6.18;;;3.00;;
25948;SDS011;13961;51.178;4.448;2023-05-31T14:54:49;10.07;;;2.60;;
25948;SDS011;13961;51.178;4.448;2023-05-31T14:57:15;6.55;;;2.60;;
25948;SDS011;13961;51.178;4.448;2023-05-31T14:59:41;4.45;;;2.80;;
25948;SDS011;13961;51.178;4.448;2023-05-31T15:02:06;8.57;;;2.70;;
25948;SDS011;13961;51.178;4.448;2023-05-31T15:04:33;6.85;;;2.90;;
25948;SDS011;13961;51.178;4.448;2023-05-31T15:06:59;8.57;;;2.53;;